Terminal Aerodrome Forecast
Issued by NWS

Home | Current Version | Previous Version | Text Only | Print | Product List | Glossary On
Versions: 1 2 3 4 5 6 7 8 9 10 11 12 13 14 15 16 17 18 19 20 21
000
FTAK31 PAFA 150045 AAA
TAFAGA
TAF AMD
PAGA 150045Z 1501/1524 00000KT 1/2SM FZFG OVC004
     FM150800 00000KT P6SM BKN020
     FM152200 08006KT P6SM BKN030=

USA.gov is the U.S. government's official web portal to all federal, state and local government web resources and services.